createdAt,value
2022-09-21T00:00:24.022Z,20.28
2022-09-21T00:01:24.090Z,19.14
2022-09-21T00:02:24.050Z,19.14
2022-09-21T00:03:23.990Z,21.42
2022-09-21T00:04:23.978Z,22.36
2022-09-21T00:05:23.966Z,21.63
2022-09-21T00:06:23.960Z,22.15
2022-09-21T00:07:23.944Z,21.84
2022-09-21T00:08:23.936Z,21.94
2022-09-21T00:09:23.925Z,21.32
2022-09-21T00:10:23.914Z,21.01
2022-09-21T00:11:23.903Z,20.18
2022-09-21T00:12:23.893Z,19.45
2022-09-21T00:13:23.962Z,18.52
2022-09-21T00:14:23.876Z,17.79
2022-09-21T00:15:23.861Z,17.37
2022-09-21T00:16:23.971Z,17.16
2022-09-21T00:17:23.838Z,18.30
2022-09-21T00:18:23.830Z,18.10
2022-09-21T00:19:23.816Z,20.59
2022-09-21T00:20:23.811Z,19.76
2022-09-21T00:21:23.794Z,20.79
2022-09-21T00:22:23.788Z,19.04
2022-09-21T00:23:23.774Z,19.24
2022-09-21T00:24:23.765Z,18.93
2022-09-21T00:25:23.755Z,19.66
2022-09-21T00:26:23.742Z,18.52
2022-09-21T00:27:23.731Z,19.66
2022-09-21T00:28:23.721Z,18.93
2022-09-21T00:29:23.737Z,18.93
2022-09-21T00:30:23.702Z,18.73
2022-09-21T00:31:23.803Z,19.87
2022-09-21T00:32:23.677Z,20.60
2022-09-21T00:33:23.664Z,16.66
2022-09-21T00:34:23.664Z,15.62
2022-09-21T00:35:23.643Z,16.03
2022-09-21T00:36:23.635Z,15.82
2022-09-21T00:37:23.621Z,15.92
2022-09-21T00:38:23.615Z,15.30
2022-09-21T00:39:23.600Z,16.24
2022-09-21T00:40:23.633Z,16.55
2022-09-21T00:41:23.578Z,16.13
2022-09-21T00:42:23.569Z,17.58
2022-09-21T00:43:23.554Z,16.24
2022-09-21T00:44:23.545Z,15.72
2022-09-21T00:45:23.563Z,16.03
2022-09-21T00:46:23.523Z,18.21
2022-09-21T00:47:23.513Z,18.00
2022-09-21T00:48:23.501Z,16.97
2022-09-21T00:49:23.490Z,18.31
2022-09-21T00:50:23.482Z,17.28
2022-09-21T00:51:23.469Z,17.80
2022-09-21T00:52:23.458Z,18.12
2022-09-21T00:53:23.452Z,18.01
2022-09-21T00:54:23.438Z,18.22
2022-09-21T00:55:23.426Z,18.32
2022-09-21T00:56:23.417Z,18.43
2022-09-21T00:57:23.405Z,19.04
2022-09-21T00:58:23.395Z,18.22
2022-09-21T00:59:28.015Z,18.32
2022-09-21T01:00:24.398Z,19.56
2022-09-21T01:01:23.445Z,18.43
2022-09-21T01:02:23.383Z,20.81
2022-09-21T01:03:23.337Z,20.50
2022-09-21T01:04:23.329Z,20.71
2022-09-21T01:05:23.315Z,20.00
2022-09-21T01:06:23.307Z,19.58
2022-09-21T01:07:23.294Z,19.68
2022-09-21T01:08:23.284Z,19.37
2022-09-21T01:09:23.270Z,19.78
2022-09-21T01:10:23.262Z,18.95
2022-09-21T01:11:23.249Z,18.74
2022-09-21T01:12:23.241Z,19.26
2022-09-21T01:13:23.228Z,20.19
2022-09-21T01:14:23.217Z,21.34
2022-09-21T01:15:23.204Z,20.00
2022-09-21T01:16:23.242Z,19.79
2022-09-21T01:17:23.203Z,19.79
2022-09-21T01:18:23.173Z,20.51
2022-09-21T01:19:23.160Z,20.20
2022-09-21T01:20:23.152Z,20.41
2022-09-21T01:21:23.138Z,19.79
2022-09-21T01:22:23.128Z,19.27
2022-09-21T01:23:23.168Z,21.24
2022-09-21T01:24:23.106Z,21.86
2022-09-21T01:25:23.147Z,20.31
2022-09-21T01:26:23.135Z,20.62
2022-09-21T01:27:23.121Z,20.41
2022-09-21T01:28:23.165Z,20.31
2022-09-21T01:29:23.099Z,20.31
2022-09-21T01:30:23.148Z,20.10
2022-09-21T01:31:23.242Z,19.68
2022-09-21T01:32:23.168Z,19.37
2022-09-21T01:33:23.132Z,19.48
2022-09-21T01:34:22.997Z,19.48
2022-09-21T01:35:22.984Z,19.89
2022-09-21T01:36:22.976Z,19.79
2022-09-21T01:37:22.964Z,21.34
2022-09-21T01:38:22.957Z,21.66
2022-09-21T01:39:22.939Z,20.31
2022-09-21T01:40:23.000Z,20.10
2022-09-21T01:41:22.918Z,20.42
2022-09-21T01:42:22.908Z,20.51
2022-09-21T01:43:22.895Z,21.25
2022-09-21T01:44:22.889Z,21.77
2022-09-21T01:45:22.906Z,21.67
2022-09-21T01:46:22.864Z,21.88
2022-09-21T01:47:22.854Z,24.89
2022-09-21T01:48:22.841Z,22.19
2022-09-21T01:49:22.856Z,21.78
2022-09-21T01:50:22.819Z,22.09
2022-09-21T01:51:22.808Z,22.09
2022-09-21T01:52:22.796Z,23.54
2022-09-21T01:53:22.838Z,22.30
2022-09-21T01:54:22.773Z,21.88
2022-09-21T01:55:22.763Z,23.33
2022-09-21T01:56:22.752Z,21.78
2022-09-21T01:57:22.741Z,21.78
2022-09-21T01:58:22.731Z,22.30
2022-09-21T01:59:22.720Z,21.36
2022-09-21T02:00:22.706Z,21.47
2022-09-21T02:01:22.698Z,20.74
2022-09-21T02:02:22.687Z,19.91
2022-09-21T02:03:22.680Z,20.73
2022-09-21T02:04:22.662Z,22.09
2022-09-21T02:05:22.678Z,21.36
2022-09-21T02:06:22.644Z,21.47
2022-09-21T02:07:22.632Z,22.71
2022-09-21T02:08:22.619Z,21.15
2022-09-21T02:09:22.611Z,22.92
2022-09-21T02:10:22.596Z,21.36
2022-09-21T02:11:22.589Z,21.05
2022-09-21T02:12:22.576Z,20.95
2022-09-21T02:13:22.568Z,20.53
2022-09-21T02:14:22.578Z,20.53
2022-09-21T02:15:22.543Z,21.05
2022-09-21T02:16:22.613Z,20.43
2022-09-21T02:17:22.524Z,19.59
2022-09-21T02:18:22.511Z,19.70
2022-09-21T02:19:22.497Z,20.83
2022-09-21T02:20:22.486Z,20.84
2022-09-21T02:21:22.499Z,20.43
2022-09-21T02:22:22.476Z,20.32
2022-09-21T02:23:22.456Z,19.91
2022-09-21T02:24:22.443Z,19.70
2022-09-21T02:25:22.431Z,19.59
2022-09-21T02:26:22.426Z,20.62
2022-09-21T02:27:22.411Z,20.22
2022-09-21T02:28:22.399Z,20.22
2022-09-21T02:29:22.387Z,20.22
2022-09-21T02:30:22.379Z,20.74
2022-09-21T02:31:22.415Z,20.74
2022-09-21T02:32:22.355Z,21.47
2022-09-21T02:33:22.347Z,20.32
2022-09-21T02:34:22.331Z,20.12
2022-09-21T02:35:22.322Z,19.81
2022-09-21T02:36:22.312Z,20.22
2022-09-21T02:37:22.327Z,22.40
2022-09-21T02:38:22.293Z,20.53
2022-09-21T02:39:22.279Z,20.53
2022-09-21T02:40:22.316Z,22.09
2022-09-21T02:41:22.259Z,21.05
2022-09-21T02:42:22.246Z,21.06
2022-09-21T02:43:22.239Z,21.69
2022-09-21T02:44:22.223Z,20.75
2022-09-21T02:45:22.214Z,20.96
2022-09-21T02:46:22.237Z,21.58
2022-09-21T02:47:22.190Z,20.65
2022-09-21T02:48:22.181Z,21.37
2022-09-21T02:49:22.168Z,22.52
2022-09-21T02:50:22.156Z,22.62
2022-09-21T02:51:22.152Z,21.38
2022-09-21T02:52:22.137Z,20.75
2022-09-21T02:53:22.153Z,20.44
2022-09-21T02:54:22.111Z,20.96
2022-09-21T02:55:22.106Z,21.58
2022-09-21T02:56:22.090Z,20.86
2022-09-21T02:57:22.083Z,22.93
2022-09-21T02:58:22.072Z,21.17
2022-09-21T02:59:22.059Z,20.75
2022-09-21T03:00:22.048Z,21.58
2022-09-21T03:01:22.038Z,21.58
2022-09-21T03:02:22.028Z,21.58
2022-09-21T03:03:22.019Z,22.21
2022-09-21T03:04:22.003Z,21.59
2022-09-21T03:05:21.996Z,21.38
2022-09-21T03:06:21.984Z,21.17
2022-09-21T03:07:21.974Z,21.17
2022-09-21T03:08:21.960Z,22.63
2022-09-21T03:09:21.973Z,21.59
2022-09-21T03:10:21.940Z,22.52
2022-09-21T03:11:21.931Z,21.90
2022-09-21T03:12:21.918Z,21.69
2022-09-21T03:13:21.907Z,22.42
2022-09-21T03:14:21.895Z,23.25
2022-09-21T03:15:21.886Z,22.52
2022-09-21T03:16:21.876Z,21.90
2022-09-21T03:17:21.865Z,22.11
2022-09-21T03:18:21.851Z,22.52
2022-09-21T03:19:21.841Z,22.74
2022-09-21T03:20:21.834Z,22.12
2022-09-21T03:21:21.819Z,22.43
2022-09-21T03:22:21.810Z,22.22
2022-09-21T03:23:21.801Z,22.02
2022-09-21T03:24:21.785Z,23.05
2022-09-21T03:25:21.799Z,22.53
2022-09-21T03:26:21.765Z,20.87
2022-09-21T03:27:21.760Z,21.07
2022-09-21T03:28:21.742Z,21.69
2022-09-21T03:29:21.731Z,21.28
2022-09-21T03:30:21.720Z,21.80
2022-09-21T03:31:21.790Z,22.11
2022-09-21T03:32:21.700Z,21.69
2022-09-21T03:33:21.690Z,21.17
2022-09-21T03:34:21.677Z,21.90
2022-09-21T03:35:21.666Z,21.59
2022-09-21T03:36:21.659Z,22.83
2022-09-21T03:37:21.645Z,21.69
2022-09-21T03:38:21.710Z,21.90
2022-09-21T03:39:21.823Z,21.59
2022-09-21T03:40:21.640Z,21.48
2022-09-21T03:41:21.625Z,21.38
2022-09-21T03:42:21.591Z,21.07
2022-09-21T03:43:21.582Z,21.38
2022-09-21T03:44:21.767Z,21.17
2022-09-21T03:45:21.558Z,22.42
2022-09-21T03:46:21.570Z,20.65
2022-09-21T03:47:21.536Z,21.48
2022-09-21T03:48:21.525Z,21.28
2022-09-21T03:49:21.517Z,21.28
2022-09-21T03:50:21.503Z,21.17
2022-09-21T03:51:21.493Z,21.90
2022-09-21T03:52:21.483Z,21.59
2022-09-21T03:53:21.472Z,20.97
2022-09-21T03:54:21.460Z,22.00
2022-09-21T03:55:21.448Z,21.48
2022-09-21T03:56:21.439Z,21.59
2022-09-21T03:57:21.453Z,22.31
2022-09-21T03:58:21.414Z,21.28
2022-09-21T03:59:21.407Z,21.28
2022-09-21T04:00:21.392Z,20.97
2022-09-21T04:01:21.454Z,20.76
2022-09-21T04:02:21.447Z,20.86
2022-09-21T04:03:21.363Z,20.76
2022-09-21T04:04:21.349Z,20.45
2022-09-21T04:05:21.345Z,20.34
2022-09-21T04:06:21.328Z,20.23
2022-09-21T04:07:21.319Z,20.75
2022-09-21T04:08:21.307Z,20.23
2022-09-21T04:09:21.295Z,21.27
2022-09-21T04:10:21.288Z,20.54
2022-09-21T04:11:21.274Z,20.97
2022-09-21T04:12:21.264Z,20.86
2022-09-21T04:13:21.273Z,21.28
2022-09-21T04:14:21.240Z,20.55
2022-09-21T04:15:21.232Z,21.59
2022-09-21T04:16:21.222Z,22.00
2022-09-21T04:17:21.210Z,21.60
2022-09-21T04:18:21.197Z,21.17
2022-09-21T04:19:21.190Z,21.07
2022-09-21T04:20:21.177Z,21.17
2022-09-21T04:21:21.165Z,21.07
2022-09-21T04:22:21.151Z,21.17
2022-09-21T04:23:21.150Z,22.22
2022-09-21T04:24:21.137Z,20.98
2022-09-21T04:25:21.124Z,20.76
2022-09-21T04:26:21.109Z,21.07
2022-09-21T04:27:21.100Z,21.80
2022-09-21T04:28:21.092Z,21.17
2022-09-21T04:29:21.191Z,21.59
2022-09-21T04:30:21.066Z,21.60
2022-09-21T04:31:21.164Z,21.50
2022-09-21T04:32:21.043Z,22.02
2022-09-21T04:33:21.037Z,22.24
2022-09-21T04:34:21.024Z,21.60
2022-09-21T04:35:21.012Z,21.81
2022-09-21T04:36:21.002Z,21.39
2022-09-21T04:37:20.992Z,21.60
2022-09-21T04:38:20.979Z,22.12
2022-09-21T04:39:20.972Z,22.12
2022-09-21T04:40:20.993Z,22.43
2022-09-21T04:41:20.947Z,23.07
2022-09-21T04:42:20.939Z,22.02
2022-09-21T04:43:22.723Z,22.13
2022-09-21T04:44:20.913Z,22.34
2022-09-21T04:45:20.926Z,22.34
2022-09-21T04:46:21.099Z,22.75
2022-09-21T04:47:20.881Z,22.65
2022-09-21T04:48:20.869Z,22.44
2022-09-21T04:49:20.859Z,22.34
2022-09-21T04:50:20.850Z,21.92
2022-09-21T04:51:20.840Z,21.92
2022-09-21T04:52:20.827Z,22.02
2022-09-21T04:53:20.817Z,22.65
2022-09-21T04:54:20.805Z,21.81
2022-09-21T04:55:20.796Z,21.61
2022-09-21T04:56:20.788Z,21.39
2022-09-21T04:57:20.776Z,22.34
2022-09-21T04:58:24.362Z,22.02
2022-09-21T04:59:20.751Z,21.71
2022-09-21T05:00:20.739Z,21.81
2022-09-21T05:01:20.847Z,21.81
2022-09-21T05:02:20.717Z,21.92
2022-09-21T05:03:20.821Z,21.81
2022-09-21T05:04:20.695Z,21.92
2022-09-21T05:05:20.689Z,21.40
2022-09-21T05:06:20.673Z,21.19
2022-09-21T05:07:20.664Z,20.77
2022-09-21T05:08:20.656Z,21.39
2022-09-21T05:09:20.640Z,21.60
2022-09-21T05:10:20.629Z,21.29
2022-09-21T05:11:20.621Z,22.02
2022-09-21T05:12:20.610Z,20.77
2022-09-21T05:13:20.598Z,21.50
2022-09-21T05:14:20.585Z,21.19
2022-09-21T05:15:20.577Z,21.70
2022-09-21T05:16:20.564Z,21.29
2022-09-21T05:17:20.689Z,21.08
2022-09-21T05:18:20.541Z,20.87
2022-09-21T05:19:20.531Z,21.19
2022-09-21T05:20:20.517Z,21.08
2022-09-21T05:21:20.511Z,21.08
2022-09-21T05:22:20.499Z,21.08
2022-09-21T05:23:20.688Z,21.19
2022-09-21T05:24:20.495Z,22.12
2022-09-21T05:25:20.476Z,21.39
2022-09-21T05:26:20.451Z,21.29
2022-09-21T05:27:20.445Z,20.87
2022-09-21T05:28:20.430Z,21.08
2022-09-21T05:29:20.420Z,21.08
2022-09-21T05:30:20.407Z,21.81
2022-09-21T05:31:20.480Z,22.85
2022-09-21T05:32:20.386Z,21.39
2022-09-21T05:33:20.399Z,21.61
2022-09-21T05:34:20.364Z,22.13
2022-09-21T05:35:20.354Z,21.40
2022-09-21T05:36:20.343Z,21.50
2022-09-21T05:37:20.333Z,21.60
2022-09-21T05:38:20.325Z,20.67
2022-09-21T05:39:20.310Z,20.87
2022-09-21T05:40:20.338Z,20.34
2022-09-21T05:41:20.291Z,20.65
2022-09-21T05:42:20.277Z,20.24
2022-09-21T05:43:20.268Z,20.24
2022-09-21T05:44:20.255Z,20.14
2022-09-21T05:45:20.247Z,21.17
2022-09-21T05:46:20.382Z,20.76
2022-09-21T05:47:20.224Z,20.55
2022-09-21T05:48:20.212Z,20.86
2022-09-21T05:49:20.223Z,20.97
2022-09-21T05:50:20.191Z,20.55
2022-09-21T05:51:20.181Z,20.03
2022-09-21T05:52:20.170Z,20.24
2022-09-21T05:53:20.159Z,20.03
2022-09-21T05:54:20.145Z,19.82
2022-09-21T05:55:20.136Z,20.03
2022-09-21T05:56:20.132Z,19.71
2022-09-21T05:57:20.120Z,20.03
2022-09-21T05:58:20.103Z,19.82
2022-09-21T05:59:20.093Z,20.03
2022-09-21T06:00:20.079Z,20.24
2022-09-21T06:01:20.133Z,20.03
2022-09-21T06:02:20.120Z,20.34
2022-09-21T06:03:20.072Z,19.82
2022-09-21T06:04:20.059Z,19.30
2022-09-21T06:05:20.052Z,19.40
2022-09-21T06:06:20.015Z,19.08
2022-09-21T06:07:20.004Z,18.98
2022-09-21T06:08:19.994Z,18.77
2022-09-21T06:09:19.984Z,18.66
2022-09-21T06:10:19.973Z,18.98
2022-09-21T06:11:19.958Z,18.56
2022-09-21T06:12:19.955Z,19.49
2022-09-21T06:13:19.973Z,18.46
2022-09-21T06:14:19.991Z,18.35
2022-09-21T06:15:20.014Z,18.14
2022-09-21T06:16:20.175Z,18.24
2022-09-21T06:17:20.102Z,18.24
2022-09-21T06:18:20.114Z,17.62
2022-09-21T06:19:19.879Z,17.72
2022-09-21T06:20:19.865Z,17.61
2022-09-21T06:21:19.877Z,18.02
2022-09-21T06:22:19.840Z,17.51
2022-09-21T06:23:19.828Z,17.30
2022-09-21T06:24:19.821Z,17.10
2022-09-21T06:25:20.306Z,16.98
2022-09-21T06:26:19.813Z,16.77
2022-09-21T06:27:19.785Z,16.47
2022-09-21T06:28:19.775Z,16.36
2022-09-21T06:29:19.764Z,16.36
2022-09-21T06:30:19.768Z,16.36
2022-09-21T06:31:19.756Z,16.16
2022-09-21T06:32:20.870Z,16.25
2022-09-21T06:33:19.719Z,16.25
2022-09-21T06:34:19.709Z,16.16
2022-09-21T06:35:19.696Z,16.05
2022-09-21T06:36:19.688Z,15.94
2022-09-21T06:37:19.697Z,15.94
2022-09-21T06:38:19.664Z,15.11
2022-09-21T06:39:19.655Z,15.11
2022-09-21T06:40:19.740Z,14.28
2022-09-21T06:41:21.448Z,14.06
2022-09-21T06:42:19.619Z,13.96
2022-09-21T06:43:19.608Z,13.54
2022-09-21T06:44:19.602Z,13.43
2022-09-21T06:45:19.605Z,13.23
2022-09-21T06:46:19.661Z,12.92
2022-09-21T06:47:19.561Z,12.71
2022-09-21T06:48:19.555Z,12.50
2022-09-21T06:49:19.561Z,12.29
2022-09-21T06:50:19.533Z,11.98
2022-09-21T06:51:19.520Z,11.57
2022-09-21T06:52:19.513Z,11.25
2022-09-21T06:53:19.520Z,10.83
2022-09-21T06:54:19.491Z,10.52
2022-09-21T06:55:19.479Z,10.42
2022-09-21T06:56:19.474Z,10.11
2022-09-21T06:57:19.459Z,9.28
2022-09-21T06:58:19.450Z,7.62
2022-09-21T06:59:19.438Z,6.18
2022-09-21T07:00:19.564Z,6.07
2022-09-21T07:01:19.535Z,6.49
2022-09-21T07:02:19.470Z,6.28
2022-09-21T07:03:19.398Z,5.46
2022-09-21T07:04:24.432Z,4.01
2022-09-21T07:05:19.370Z,2.47
2022-09-21T07:06:19.360Z,0.92
2022-09-21T07:07:19.346Z,0.00
2022-09-21T07:10:20.825Z,0.00
2022-09-21T07:11:19.306Z,0.00
2022-09-21T07:12:19.293Z,0.00
2022-09-21T07:13:19.283Z,0.00
2022-09-21T07:14:19.382Z,0.00
2022-09-21T07:15:19.603Z,0.00
2022-09-21T07:16:19.303Z,0.61
2022-09-21T07:17:19.235Z,4.19
2022-09-21T07:18:19.230Z,8.69
2022-09-21T07:19:19.220Z,10.41
2022-09-21T07:20:19.204Z,13.99
2022-09-21T07:21:19.197Z,13.88
2022-09-21T07:22:19.187Z,24.91
2022-09-21T07:23:19.172Z,28.67
2022-09-21T07:24:19.161Z,23.36
2022-09-21T07:25:19.243Z,33.04
2022-09-21T07:26:19.413Z,34.58
2022-09-21T07:27:19.128Z,32.23
2022-09-21T07:28:19.118Z,31.18
2022-09-21T07:29:19.105Z,40.96
2022-09-21T07:30:19.097Z,41.14
2022-09-21T07:31:19.118Z,42.98
2022-09-21T07:32:19.071Z,50.19
2022-09-21T07:33:19.062Z,49.68
2022-09-21T07:34:19.052Z,50.90
2022-09-21T07:35:19.037Z,51.10
2022-09-21T07:36:19.169Z,54.44
2022-09-21T07:37:19.312Z,56.88
2022-09-21T07:38:19.009Z,57.16
2022-09-21T07:39:19.000Z,62.24
2022-09-21T07:40:23.005Z,61.13
2022-09-21T07:41:18.995Z,60.38
2022-09-21T07:42:18.966Z,63.60
2022-09-21T07:43:18.952Z,62.59
2022-09-21T07:44:18.940Z,63.51
2022-09-21T07:45:19.010Z,63.24
2022-09-21T07:46:18.934Z,65.58
2022-09-21T07:47:18.935Z,71.03
2022-09-21T07:48:18.951Z,67.95
2022-09-21T07:49:19.138Z,71.20
2022-09-21T07:50:18.891Z,71.77
2022-09-21T07:51:18.876Z,72.38
2022-09-21T07:52:19.026Z,77.55
2022-09-21T07:53:19.026Z,75.18
2022-09-21T07:54:19.087Z,78.63
2022-09-21T07:55:19.072Z,79.40
2022-09-21T07:56:18.808Z,81.79
2022-09-21T07:57:18.817Z,83.01
2022-09-21T07:58:19.086Z,82.97
2022-09-21T07:59:18.775Z,81.31
2022-09-21T08:00:18.789Z,86.27
2022-09-21T08:01:18.975Z,81.48
2022-09-21T08:02:18.849Z,86.02
2022-09-21T08:03:18.736Z,85.02
2022-09-21T08:04:18.725Z,83.56
2022-09-21T08:05:18.712Z,88.57
2022-09-21T08:06:18.702Z,90.43
2022-09-21T08:07:18.688Z,89.42
2022-09-21T08:08:18.695Z,86.59
2022-09-21T08:09:18.665Z,86.19
2022-09-21T08:10:18.656Z,87.86
2022-09-21T08:11:18.674Z,88.93
2022-09-21T08:12:18.642Z,91.87
2022-09-21T08:13:18.744Z,92.38
2022-09-21T08:14:21.192Z,95.04
2022-09-21T08:15:43.998Z,93.63
2022-09-21T08:16:18.618Z,93.33
2022-09-21T08:17:18.585Z,95.70
2022-09-21T08:18:18.572Z,96.81
2022-09-21T08:19:18.575Z,98.07
2022-09-21T08:20:18.550Z,95.00
2022-09-21T08:21:18.537Z,92.62
2022-09-21T08:22:18.528Z,93.18
2022-09-21T08:23:18.511Z,96.05
2022-09-21T08:24:18.504Z,95.81
2022-09-21T08:25:18.488Z,94.90
2022-09-21T08:26:18.485Z,95.46
2022-09-21T08:27:18.468Z,94.35
2022-09-21T08:28:18.483Z,96.92
2022-09-21T08:29:18.721Z,97.98
2022-09-21T08:30:18.437Z,95.01
2022-09-21T08:31:18.516Z,98.38
2022-09-21T08:32:39.302Z,98.33
2022-09-21T08:33:19.435Z,97.52
2022-09-21T08:34:18.397Z,96.92
2022-09-21T08:35:18.397Z,96.71
2022-09-21T08:36:18.382Z,95.36
2022-09-21T08:37:18.361Z,96.92
2022-09-21T08:38:18.353Z,92.30
2022-09-21T08:39:18.357Z,99.05
2022-09-21T08:40:18.378Z,97.74
2022-09-21T08:41:18.330Z,97.28
2022-09-21T08:42:18.306Z,97.69
2022-09-21T08:43:18.294Z,97.08
2022-09-21T08:44:19.342Z,94.81
2022-09-21T08:45:18.299Z,94.10
2022-09-21T08:46:18.325Z,97.13
2022-09-21T08:47:18.259Z,94.62
2022-09-21T08:48:18.242Z,95.23
2022-09-21T08:49:18.229Z,94.83
2022-09-21T08:50:18.222Z,96.64
2022-09-21T08:51:18.233Z,91.01
2022-09-21T08:52:18.200Z,81.07
2022-09-21T08:53:18.193Z,88.17
2022-09-21T08:54:18.179Z,84.51
2022-09-21T08:55:18.167Z,79.43
2022-09-21T08:56:18.156Z,71.09
2022-09-21T08:57:18.144Z,74.37
2022-09-21T08:58:18.135Z,83.97
2022-09-21T08:59:18.122Z,87.88
2022-09-21T09:00:18.124Z,75.21
2022-09-21T09:01:18.161Z,74.67
2022-09-21T09:02:18.188Z,82.59
2022-09-21T09:03:18.101Z,81.62
2022-09-21T09:04:18.076Z,78.42
2022-09-21T09:05:18.060Z,75.07
2022-09-21T09:06:18.047Z,75.67
2022-09-21T09:07:18.036Z,75.10
2022-09-21T09:08:18.027Z,80.92
2022-09-21T09:09:18.015Z,81.32
2022-09-21T09:10:18.004Z,81.42
2022-09-21T09:11:17.993Z,81.26
2022-09-21T09:12:17.988Z,75.54
2022-09-21T09:13:18.011Z,75.08
2022-09-21T09:14:17.974Z,78.73
2022-09-21T09:15:17.949Z,74.07
2022-09-21T09:16:18.014Z,76.51
2022-09-21T09:17:17.955Z,75.07
2022-09-21T09:18:17.922Z,75.54
2022-09-21T09:19:17.909Z,77.40
2022-09-21T09:20:17.901Z,70.56
2022-09-21T09:21:25.306Z,74.30
2022-09-21T09:22:18.907Z,74.70
2022-09-21T09:23:17.872Z,71.36
2022-09-21T09:24:17.879Z,68.76
2022-09-21T09:25:17.851Z,70.36
2022-09-21T09:26:17.835Z,74.43
2022-09-21T09:27:17.824Z,70.59
2022-09-21T09:28:17.814Z,64.76
2022-09-21T09:29:17.805Z,67.16
2022-09-21T09:30:17.799Z,64.16
2022-09-21T09:31:17.856Z,68.29
2022-09-21T09:32:17.788Z,68.93
2022-09-21T09:33:17.787Z,62.34
2022-09-21T09:34:17.768Z,61.21
2022-09-21T09:35:17.805Z,63.07
2022-09-21T09:36:30.055Z,58.95
2022-09-21T09:37:17.726Z,60.68
2022-09-21T09:38:17.712Z,60.45
2022-09-21T09:39:17.706Z,59.28
2022-09-21T09:40:17.725Z,56.46
2022-09-21T09:41:17.682Z,55.96
2022-09-21T09:42:17.667Z,55.06
2022-09-21T09:43:17.658Z,56.29
2022-09-21T09:44:17.660Z,58.75
2022-09-21T09:45:17.663Z,59.58
2022-09-21T09:46:17.660Z,54.32
2022-09-21T09:47:17.612Z,56.44
2022-09-21T09:48:17.601Z,58.99
2022-09-21T09:49:17.612Z,59.62
2022-09-21T09:50:17.582Z,59.42
2022-09-21T09:51:17.573Z,57.26
2022-09-21T09:52:17.562Z,57.21
2022-09-21T09:53:17.550Z,56.71
2022-09-21T09:54:17.540Z,57.28
2022-09-21T09:55:17.537Z,53.96
2022-09-21T09:56:17.516Z,53.86
2022-09-21T09:57:17.505Z,52.02
2022-09-21T09:58:17.495Z,52.29
2022-09-21T09:59:17.482Z,48.79
2022-09-21T10:00:17.474Z,49.95
2022-09-21T10:01:17.477Z,49.43
2022-09-21T10:02:17.455Z,50.25
2022-09-21T10:03:17.443Z,50.05
2022-09-21T10:04:17.582Z,48.96
2022-09-21T10:05:17.444Z,50.63
2022-09-21T10:06:17.413Z,48.36
2022-09-21T10:07:17.403Z,49.33
2022-09-21T10:08:17.392Z,49.80
2022-09-21T10:09:17.379Z,47.32
2022-09-21T10:10:17.374Z,48.34
2022-09-21T10:11:17.358Z,47.07
2022-09-21T10:12:17.350Z,50.48
2022-09-21T10:13:17.356Z,51.50
2022-09-21T10:14:17.362Z,51.92
2022-09-21T10:15:17.321Z,51.12
2022-09-21T10:16:17.399Z,51.35
2022-09-21T10:17:17.301Z,51.75
2022-09-21T10:18:17.287Z,51.57
2022-09-21T10:19:17.280Z,52.04
2022-09-21T10:20:17.270Z,51.15
2022-09-21T10:21:17.931Z,51.32
2022-09-21T10:22:17.250Z,50.62
2022-09-21T10:23:17.242Z,49.98
2022-09-21T10:24:17.226Z,49.43
2022-09-21T10:25:17.250Z,47.64
2022-09-21T10:26:17.235Z,47.02
2022-09-21T10:27:17.198Z,46.95
2022-09-21T10:28:17.185Z,49.03
2022-09-21T10:29:17.175Z,50.92
2022-09-21T10:30:17.166Z,51.57
2022-09-21T10:31:17.331Z,47.84
2022-09-21T10:32:17.148Z,46.57
2022-09-21T10:33:17.138Z,47.96
2022-09-21T10:34:17.127Z,48.91
2022-09-21T10:35:17.137Z,48.79
2022-09-21T10:36:17.119Z,49.18
2022-09-21T10:37:17.128Z,48.16
2022-09-21T10:38:21.314Z,49.53
2022-09-21T10:39:17.074Z,48.52
2022-09-21T10:40:17.123Z,47.25
2022-09-21T10:41:17.054Z,47.52
2022-09-21T10:42:17.044Z,45.93
2022-09-21T10:43:17.031Z,46.57
2022-09-21T10:44:17.020Z,47.19
2022-09-21T10:45:17.024Z,47.27
2022-09-21T10:46:17.097Z,47.47
2022-09-21T10:47:17.176Z,47.20
2022-09-21T10:48:16.978Z,46.28
2022-09-21T10:49:16.970Z,47.94
2022-09-21T10:50:16.960Z,48.07
2022-09-21T10:51:16.949Z,48.88
2022-09-21T10:52:16.938Z,48.16
2022-09-21T10:53:16.952Z,46.01
2022-09-21T10:54:16.918Z,44.71
2022-09-21T10:55:16.925Z,45.61
2022-09-21T10:56:17.872Z,45.19
2022-09-21T10:57:16.887Z,45.19
2022-09-21T10:58:16.877Z,45.06
2022-09-21T10:59:16.878Z,47.19
2022-09-21T11:00:16.857Z,47.77
2022-09-21T11:01:16.896Z,47.54
2022-09-21T11:02:16.884Z,45.06
2022-09-21T11:03:16.826Z,45.33
2022-09-21T11:04:16.827Z,43.88
2022-09-21T11:05:16.831Z,44.75
2022-09-21T11:06:16.794Z,42.13
2022-09-21T11:07:16.786Z,42.11
2022-09-21T11:08:16.775Z,41.91
2022-09-21T11:09:16.788Z,41.24
2022-09-21T11:10:16.751Z,42.25
2022-09-21T11:11:16.745Z,42.39
2022-09-21T11:12:16.730Z,43.30
2022-09-21T11:13:16.724Z,45.19
2022-09-21T11:14:16.962Z,44.00
2022-09-21T11:15:16.712Z,43.94
2022-09-21T11:16:16.781Z,46.59
2022-09-21T11:17:16.680Z,48.46
2022-09-21T11:18:16.669Z,50.32
2022-09-21T11:19:16.661Z,50.47
2022-09-21T11:20:16.647Z,51.09
2022-09-21T11:21:16.644Z,52.24
2022-09-21T11:22:16.632Z,54.27
2022-09-21T11:23:16.629Z,57.40
2022-09-21T11:24:16.614Z,56.73
2022-09-21T11:25:16.641Z,57.06
2022-09-21T11:26:16.631Z,60.29
2022-09-21T11:27:16.624Z,62.60
2022-09-21T11:28:16.564Z,60.22
2022-09-21T11:29:16.581Z,57.11
2022-09-21T11:30:17.349Z,57.91
2022-09-21T11:31:16.578Z,59.25
2022-09-21T11:32:16.531Z,61.35
2022-09-21T11:33:16.531Z,58.84
2022-09-21T11:34:16.499Z,63.09
2022-09-21T11:35:16.495Z,73.84
2022-09-21T11:36:16.479Z,62.59
2022-09-21T11:37:16.503Z,61.21
2022-09-21T11:38:16.484Z,67.14
2022-09-21T11:39:16.447Z,64.73
2022-09-21T11:40:16.496Z,64.83
2022-09-21T11:41:16.447Z,61.41
2022-09-21T11:42:16.414Z,62.92
2022-09-21T11:43:16.421Z,63.45
2022-09-21T11:44:18.942Z,64.66
2022-09-21T11:45:16.380Z,66.57
2022-09-21T11:46:16.453Z,64.16
2022-09-21T11:47:16.360Z,74.21
2022-09-21T11:48:16.349Z,64.66
2022-09-21T11:49:16.338Z,64.56
2022-09-21T11:50:31.995Z,67.55
2022-09-21T11:51:17.350Z,63.85
2022-09-21T11:52:16.351Z,64.46
2022-09-21T11:53:16.302Z,63.85
2022-09-21T11:54:16.281Z,62.52
2022-09-21T11:55:16.272Z,61.04
2022-09-21T11:56:16.267Z,60.24
2022-09-21T11:57:16.272Z,61.98
2022-09-21T11:58:16.235Z,63.28
2022-09-21T11:59:16.225Z,61.67
2022-09-21T12:00:16.380Z,60.36
2022-09-21T12:01:16.201Z,62.07
2022-09-21T12:02:16.431Z,62.71
2022-09-21T12:03:16.203Z,69.65
2022-09-21T12:04:16.166Z,64.62
2022-09-21T12:05:16.162Z,66.36
2022-09-21T12:06:16.147Z,65.26
2022-09-21T12:07:16.140Z,68.98
2022-09-21T12:08:16.129Z,66.36
2022-09-21T12:09:16.117Z,68.58
2022-09-21T12:10:16.107Z,69.69
2022-09-21T12:11:16.095Z,73.82
2022-09-21T12:12:16.083Z,68.78
2022-09-21T12:13:16.101Z,67.71
2022-09-21T12:14:16.116Z,65.89
2022-09-21T12:15:16.174Z,64.07
2022-09-21T12:16:16.082Z,68.91
2022-09-21T12:17:16.028Z,67.80
2022-09-21T12:18:16.019Z,66.77
2022-09-21T12:19:16.009Z,68.48
2022-09-21T12:20:15.997Z,66.39
2022-09-21T12:21:15.984Z,66.80
2022-09-21T12:22:15.975Z,66.30
2022-09-21T12:23:15.966Z,64.38
2022-09-21T12:24:15.969Z,65.26
2022-09-21T12:25:15.954Z,66.43
2022-09-21T12:26:15.929Z,65.83
2022-09-21T12:27:15.922Z,68.65
2022-09-21T12:28:15.919Z,62.10
2022-09-21T12:29:15.934Z,61.33
2022-09-21T12:30:15.892Z,62.70
2022-09-21T12:31:15.905Z,63.40
2022-09-21T12:32:15.867Z,66.46
2022-09-21T12:33:15.858Z,66.25
2022-09-21T12:34:15.843Z,66.36
2022-09-21T12:35:15.838Z,67.16
2022-09-21T12:36:15.843Z,70.69
2022-09-21T12:37:15.835Z,74.52
2022-09-21T12:38:15.801Z,69.89
2022-09-21T12:39:15.791Z,71.33
2022-09-21T12:40:15.900Z,75.03
2022-09-21T12:41:15.769Z,79.36
2022-09-21T12:42:15.757Z,79.67
2022-09-21T12:43:15.748Z,67.30
2022-09-21T12:44:15.734Z,66.69
2022-09-21T12:45:15.747Z,80.31
2022-09-21T12:46:15.795Z,75.77
2022-09-21T12:47:15.702Z,73.85
2022-09-21T12:48:15.723Z,71.33
2022-09-21T12:49:15.709Z,77.39
2022-09-21T12:50:15.669Z,86.73
2022-09-21T12:51:15.660Z,89.75
2022-09-21T12:52:15.646Z,93.79
2022-09-21T12:53:15.635Z,90.06
2022-09-21T12:54:15.627Z,91.57
2022-09-21T12:55:17.211Z,86.36